Winnebago, IL (61088)

10:12 PM CST on February 09, 2016 (GMT -0600)
3 Mi. SE of Winnebago | | Change Station
CLOSE
Current Station
Personal Weather Station
Location: Winnebago, IL
Elevation: 838 ft
Nearby Weather Stations

Elev 838 ft 42.23 °N, 89.19 °W | Updated 10 seconds ago

Overcast
Overcast
12.9 °F
Feels Like 13 °F
N
2.0
Wind Variable Wind from NNW
Gusts 15.0 mph

Today
High -- | Low -- °F
--% Chance of Precip.
Yesterday
High -- | Low -- °F
Precip. -- in
Pressure 30.06 in
Visibility 10.0 miles
Clouds Overcast 4600 ft
Windchill 13 °F
Dew Point -2 °F
Humidity 50%
Rainfall 0.00 in
Snow Depth Not available.
7:01 AM 5:21 PM
Waxing Crescent, 3% visible
METAR KRFD 100354Z 33011KT 10SM OVC046 M10/M17 A3001 RMK AO2 SNE07 SLP177 P0000 T11001172 $
Pressure 30.06 in
Visibility 10.0 miles
Clouds Overcast 4600 ft
Windchill 13 °F
Dew Point -2 °F
Humidity 50%
Rainfall 0.00 in
Snow Depth Not available.
7:01 AM 5:21 PM
Waxing Crescent, 3% visible
METAR KRFD 100354Z 33011KT 10SM OVC046 M10/M17 A3001 RMK AO2 SNE07 SLP177 P0000 T11001172 $

10-Day Weather Forecast

Almanac

Astronomy

Feb. 09, 2016 Rise Set
Actual Time
Civil Twilight
Nautical Twilight
Astronomical Twilight
Moon
Length of Visible Light
Length of Day
Tomorrow will be .
, % of the Moon is Illuminated

Today's Extremes

State Highs State Lows

Community

WunderPhotos

Upload Photos

1,891,796 photos uploaded!

WunderBlog® & News

Nearby

Air Quality

  Air Quality AQ Index Pollutant
Not available.

Snow Depth

Station Depth Elevation

Earthquake Activity

City Distance Mag. Time & Date
Minimum magnitude displayed is 2.5.

Coastal Water Temperatures

Place Temperature

Stations

Nearby Weather Stations

Station Location Temp. Windchill Dew Point Humidity Wind Precip. Elev Updated Type
                   

Watches & Warnings

There are currently no watches in effect.